createdAt,value
2023-05-19T00:01:21.050Z,43.17
2023-05-19T00:03:59.134Z,42.91
2023-05-19T00:06:27.753Z,44.45
2023-05-19T00:09:04.179Z,42.57
2023-05-19T00:11:31.899Z,43.66
2023-05-19T00:14:00.394Z,42.44
2023-05-19T00:16:29.353Z,43.68
2023-05-19T00:18:58.243Z,43.71
2023-05-19T00:21:25.049Z,42.17
2023-05-19T00:23:51.854Z,43.02
2023-05-19T00:26:18.936Z,42.20
2023-05-19T00:28:55.113Z,44.11
2023-05-19T00:31:21.947Z,44.19
2023-05-19T00:33:48.822Z,44.41
2023-05-19T00:36:15.660Z,43.97
2023-05-19T00:38:42.444Z,43.82
2023-05-19T00:41:09.548Z,42.28
2023-05-19T00:43:36.433Z,43.83
2023-05-19T00:46:03.752Z,42.46
2023-05-19T00:48:30.717Z,42.76
2023-05-19T00:51:04.180Z,44.04
2023-05-19T00:53:33.537Z,41.93
2023-05-19T00:56:01.611Z,43.31
2023-05-19T00:58:30.814Z,43.09
2023-05-19T01:01:04.219Z,43.10
2023-05-19T01:03:35.165Z,42.24
2023-05-19T01:06:05.318Z,41.74
2023-05-19T01:08:33.625Z,40.73
2023-05-19T01:11:00.715Z,40.76
2023-05-19T01:13:28.591Z,43.30
2023-05-19T01:16:02.535Z,46.62
2023-05-19T01:18:47.562Z,44.01
2023-05-19T01:21:23.015Z,46.24
2023-05-19T01:24:18.377Z,43.41
2023-05-19T01:27:00.715Z,45.57
2023-05-19T01:29:29.479Z,45.38
2023-05-19T01:32:00.353Z,45.31
2023-05-19T01:34:29.529Z,46.41
2023-05-19T01:36:58.290Z,44.23
2023-05-19T01:39:26.160Z,45.32
2023-05-19T01:41:55.039Z,45.90
2023-05-19T01:44:23.816Z,45.25
2023-05-19T01:46:51.175Z,45.17
2023-05-19T01:49:18.018Z,44.88
2023-05-19T01:51:44.954Z,44.38
2023-05-19T01:54:11.753Z,44.72
2023-05-19T01:56:49.483Z,46.55
2023-05-19T01:59:27.376Z,45.36
2023-05-19T02:02:00.604Z,46.20
2023-05-19T02:04:41.709Z,45.69
2023-05-19T02:07:15.707Z,44.38
2023-05-19T02:10:03.982Z,43.36
2023-05-19T02:12:39.154Z,44.88
2023-05-19T02:15:11.222Z,44.84
2023-05-19T02:17:47.758Z,46.67
2023-05-19T02:20:18.362Z,43.97
2023-05-19T02:22:45.599Z,43.47
2023-05-19T02:25:13.344Z,44.28
2023-05-19T02:27:41.753Z,43.07
2023-05-19T02:30:09.499Z,45.02
2023-05-19T02:32:37.104Z,45.63
2023-05-19T02:35:04.896Z,44.79
2023-05-19T02:37:32.623Z,44.36
2023-05-19T02:39:59.531Z,42.82
2023-05-19T02:42:26.394Z,46.40
2023-05-19T02:44:54.672Z,47.42
2023-05-19T02:47:21.802Z,45.02
2023-05-19T02:49:48.601Z,45.34
2023-05-19T02:52:15.646Z,47.06
2023-05-19T02:54:42.654Z,44.92
2023-05-19T02:57:09.681Z,46.23
2023-05-19T02:59:36.722Z,44.10
2023-05-19T03:02:03.849Z,44.59
2023-05-19T03:04:30.693Z,44.07
2023-05-19T03:06:57.838Z,45.58
2023-05-19T03:09:24.787Z,46.86
2023-05-19T03:11:51.633Z,45.44
2023-05-19T03:14:18.842Z,44.47
2023-05-19T03:16:45.877Z,45.78
2023-05-19T03:19:12.884Z,44.00
2023-05-19T03:21:39.949Z,44.76
2023-05-19T03:24:07.254Z,43.79
2023-05-19T03:26:34.467Z,42.58
2023-05-19T03:29:01.531Z,43.69
2023-05-19T03:31:30.718Z,42.90
2023-05-19T03:33:59.127Z,43.44
2023-05-19T03:36:32.091Z,44.00
2023-05-19T03:39:00.441Z,43.06
2023-05-19T03:41:27.535Z,42.43
2023-05-19T03:43:54.351Z,44.34
2023-05-19T03:46:21.337Z,43.98
2023-05-19T03:48:54.459Z,45.32
2023-05-19T03:51:40.231Z,42.51
2023-05-19T03:54:21.104Z,43.11
2023-05-19T03:56:48.488Z,44.79
2023-05-19T03:59:16.275Z,43.68
2023-05-19T04:01:43.041Z,46.12
2023-05-19T04:04:10.211Z,46.94
2023-05-19T04:06:37.851Z,45.82
2023-05-19T04:09:14.597Z,45.50
2023-05-19T04:11:42.807Z,46.21
2023-05-19T04:14:09.810Z,45.04
2023-05-19T04:16:37.276Z,47.70
2023-05-19T04:19:04.301Z,46.41
2023-05-19T04:21:31.116Z,45.81
2023-05-19T04:24:00.058Z,46.55
2023-05-19T04:26:30.947Z,45.72
2023-05-19T04:28:58.018Z,46.18
2023-05-19T04:31:24.860Z,46.17
2023-05-19T04:33:53.572Z,47.60
2023-05-19T04:36:21.858Z,46.13
2023-05-19T04:38:54.923Z,46.42
2023-05-19T04:41:25.749Z,46.43
2023-05-19T04:43:52.566Z,45.79
2023-05-19T04:46:24.431Z,46.16
2023-05-19T04:48:53.400Z,45.61
2023-05-19T04:51:20.517Z,47.02
2023-05-19T04:53:47.352Z,45.00
2023-05-19T04:56:15.575Z,45.86
2023-05-19T04:58:44.887Z,45.67
2023-05-19T05:01:13.965Z,45.88
2023-05-19T05:03:41.104Z,45.36
2023-05-19T05:06:08.912Z,42.96
2023-05-19T05:08:40.071Z,45.10
2023-05-19T05:11:07.407Z,44.36
2023-05-19T05:13:34.917Z,44.95
2023-05-19T05:16:01.979Z,46.01
2023-05-19T05:18:29.004Z,46.73
2023-05-19T05:20:56.112Z,43.43
2023-05-19T05:23:24.717Z,43.26
2023-05-19T05:25:51.907Z,43.18
2023-05-19T05:28:19.157Z,43.13
2023-05-19T05:30:47.293Z,43.49
2023-05-19T05:33:15.449Z,45.69
2023-05-19T05:35:42.875Z,46.35
2023-05-19T05:38:12.232Z,45.53
2023-05-19T05:40:39.949Z,45.85
2023-05-19T05:43:07.892Z,41.35
2023-05-19T05:45:41.136Z,41.94
2023-05-19T05:48:09.534Z,41.72
2023-05-19T05:50:37.144Z,42.30
2023-05-19T05:53:07.308Z,43.73
2023-05-19T05:55:36.975Z,43.06
2023-05-19T05:58:05.695Z,44.42
2023-05-19T06:00:33.574Z,43.99
2023-05-19T06:03:00.689Z,42.54
2023-05-19T06:05:27.827Z,43.30
2023-05-19T06:07:55.009Z,43.66
2023-05-19T06:10:25.394Z,39.68
2023-05-19T06:12:54.140Z,42.75
2023-05-19T06:15:23.614Z,43.54
2023-05-19T06:18:03.638Z,40.83
2023-05-19T06:20:30.639Z,41.02
2023-05-19T06:22:58.160Z,39.85
2023-05-19T06:25:27.059Z,41.70
2023-05-19T06:27:54.961Z,42.93
2023-05-19T06:30:22.992Z,41.08
2023-05-19T06:33:11.970Z,41.38
2023-05-19T06:35:38.774Z,41.97
2023-05-19T06:38:05.848Z,42.14
2023-05-19T06:40:32.949Z,42.47
2023-05-19T06:42:59.923Z,43.52
2023-05-19T06:45:52.909Z,41.89
2023-05-19T06:48:19.885Z,40.34
2023-05-19T06:50:47.538Z,41.01
2023-05-19T06:53:14.456Z,39.71
2023-05-19T06:55:50.685Z,44.30
2023-05-19T06:58:27.329Z,43.76
2023-05-19T07:00:54.609Z,41.65
2023-05-19T07:03:22.504Z,42.49
2023-05-19T07:05:49.747Z,42.87
2023-05-19T07:08:16.545Z,39.89
2023-05-19T07:10:43.902Z,42.33
2023-05-19T07:13:13.744Z,44.05
2023-05-19T07:15:41.226Z,42.73
2023-05-19T07:18:08.084Z,41.20
2023-05-19T07:20:36.289Z,39.00
2023-05-19T07:23:05.334Z,39.92
2023-05-19T07:25:33.316Z,40.57
2023-05-19T07:28:00.335Z,42.60
2023-05-19T07:30:28.955Z,41.46
2023-05-19T07:32:56.509Z,38.24
2023-05-19T07:35:23.421Z,40.07
2023-05-19T07:37:51.649Z,38.57
2023-05-19T07:40:18.696Z,42.33
2023-05-19T07:42:45.555Z,41.62
2023-05-19T07:45:12.732Z,38.60
2023-05-19T07:47:39.621Z,43.30
2023-05-19T07:50:07.013Z,44.32
2023-05-19T07:52:33.999Z,41.33
2023-05-19T07:55:02.008Z,44.56
2023-05-19T07:57:29.399Z,41.73
2023-05-19T07:59:56.615Z,38.27
2023-05-19T08:02:23.440Z,37.62
2023-05-19T08:04:50.551Z,37.97
2023-05-19T08:07:17.330Z,39.58
2023-05-19T08:09:44.423Z,39.81
2023-05-19T08:12:11.397Z,38.88
2023-05-19T08:14:38.248Z,41.84
2023-05-19T08:17:05.088Z,44.21
2023-05-19T08:19:32.010Z,42.77
2023-05-19T08:22:01.360Z,41.39
2023-05-19T08:24:32.857Z,38.51
2023-05-19T08:26:59.804Z,39.39
2023-05-19T08:29:26.604Z,40.98
2023-05-19T08:31:53.788Z,41.22
2023-05-19T08:34:20.938Z,39.07
2023-05-19T08:36:48.000Z,39.89
2023-05-19T08:39:16.384Z,42.39
2023-05-19T08:41:43.396Z,40.46
2023-05-19T08:44:10.259Z,40.27
2023-05-19T08:46:37.436Z,42.38
2023-05-19T08:49:14.883Z,38.59
2023-05-19T08:52:09.977Z,37.28
2023-05-19T08:55:09.755Z,37.84
2023-05-19T08:57:39.451Z,40.59
2023-05-19T09:00:12.261Z,39.23
2023-05-19T09:02:50.408Z,37.90
2023-05-19T09:05:27.182Z,39.77
2023-05-19T09:07:54.031Z,39.33
2023-05-19T09:10:20.970Z,38.74
2023-05-19T09:12:48.822Z,40.22
2023-05-19T09:15:19.409Z,37.02
2023-05-19T09:17:48.222Z,36.48
2023-05-19T09:20:17.417Z,37.83
2023-05-19T09:22:48.334Z,38.11
2023-05-19T09:25:24.864Z,38.81
2023-05-19T09:27:54.130Z,39.60
2023-05-19T09:30:21.547Z,39.42
2023-05-19T09:32:48.414Z,37.75
2023-05-19T09:35:20.216Z,37.91
2023-05-19T09:37:47.003Z,37.73
2023-05-19T09:40:15.852Z,37.95
2023-05-19T09:42:44.445Z,40.65
2023-05-19T09:45:11.967Z,37.34
2023-05-19T09:47:41.268Z,39.15
2023-05-19T09:50:10.492Z,40.56
2023-05-19T09:52:39.093Z,37.21
2023-05-19T09:55:09.255Z,42.26
2023-05-19T09:57:37.392Z,38.11
2023-05-19T10:00:14.561Z,38.21
2023-05-19T10:02:44.180Z,39.27
2023-05-19T10:05:23.135Z,39.92
2023-05-19T10:07:51.686Z,38.61
2023-05-19T10:10:21.975Z,40.65
2023-05-19T10:12:49.996Z,39.64
2023-05-19T10:15:20.607Z,42.06
2023-05-19T10:17:50.648Z,40.80
2023-05-19T10:22:46.322Z,38.67
2023-05-19T10:25:18.637Z,39.08
2023-05-19T10:27:57.707Z,39.22
2023-05-19T10:30:31.360Z,40.88
2023-05-19T10:33:01.896Z,40.19
2023-05-19T10:36:14.668Z,39.25
2023-05-19T10:38:57.114Z,40.96
2023-05-19T10:41:38.750Z,39.80
2023-05-19T10:44:31.728Z,39.64
2023-05-19T10:46:58.753Z,39.63
2023-05-19T10:49:25.823Z,40.04
2023-05-19T10:51:56.658Z,39.85
2023-05-19T10:54:40.889Z,41.34
2023-05-19T10:57:09.934Z,42.02
2023-05-19T10:59:39.812Z,41.00
2023-05-19T11:02:08.860Z,41.19
2023-05-19T11:04:52.571Z,40.65
2023-05-19T11:07:22.390Z,40.52
2023-05-19T11:09:51.882Z,41.55
2023-05-19T11:12:25.541Z,39.73
2023-05-19T11:14:54.197Z,41.58
2023-05-19T11:17:24.078Z,38.94
2023-05-19T11:19:59.855Z,40.40
2023-05-19T11:22:27.871Z,39.16
2023-05-19T11:24:55.744Z,37.45
2023-05-19T11:27:34.226Z,35.34
2023-05-19T11:30:15.186Z,36.78
2023-05-19T11:32:42.983Z,40.47
2023-05-19T11:35:10.482Z,41.38
2023-05-19T11:37:38.081Z,39.92
2023-05-19T11:40:07.708Z,41.35
2023-05-19T11:42:35.466Z,43.18
2023-05-19T11:45:05.322Z,39.90
2023-05-19T11:47:47.044Z,41.49
2023-05-19T11:50:22.529Z,39.69
2023-05-19T11:52:51.134Z,41.00
2023-05-19T11:55:19.199Z,41.29
2023-05-19T11:58:12.388Z,41.29
2023-05-19T12:00:40.813Z,41.01
2023-05-19T12:03:08.681Z,40.22
2023-05-19T12:05:48.640Z,41.51
2023-05-19T12:08:18.554Z,41.52
2023-05-19T12:10:51.848Z,42.75
2023-05-19T12:13:19.398Z,42.32
2023-05-19T12:15:47.002Z,42.78
2023-05-19T12:18:14.027Z,42.20
2023-05-19T12:20:41.266Z,44.22
2023-05-19T12:23:08.172Z,41.32
2023-05-19T12:25:35.398Z,39.43
2023-05-19T12:28:05.843Z,39.85
2023-05-19T12:30:33.980Z,43.49
2023-05-19T12:33:03.100Z,40.84
2023-05-19T12:35:34.676Z,40.32
2023-05-19T12:38:06.200Z,41.81
2023-05-19T12:40:37.482Z,41.59
2023-05-19T12:43:05.840Z,39.97
2023-05-19T12:45:37.260Z,39.99
2023-05-19T12:48:06.747Z,41.34
2023-05-19T12:50:34.717Z,39.83
2023-05-19T12:53:02.318Z,40.12
2023-05-19T12:55:30.207Z,38.55
2023-05-19T12:57:58.308Z,36.51
2023-05-19T13:00:31.399Z,37.57
2023-05-19T13:03:05.361Z,38.88
2023-05-19T13:05:34.549Z,39.06
2023-05-19T13:08:05.350Z,38.23
2023-05-19T13:10:34.076Z,41.77
2023-05-19T13:13:01.381Z,37.93
2023-05-19T13:15:32.344Z,40.00
2023-05-19T13:18:01.166Z,40.99
2023-05-19T13:20:28.783Z,40.01
2023-05-19T13:22:57.164Z,38.66
2023-05-19T13:25:24.089Z,38.73
2023-05-19T13:27:51.124Z,39.42
2023-05-19T13:30:19.067Z,39.43
2023-05-19T13:32:46.608Z,38.97
2023-05-19T13:35:15.006Z,37.18
2023-05-19T13:37:45.621Z,38.86
2023-05-19T13:40:13.718Z,39.43
2023-05-19T13:42:41.730Z,39.73
2023-05-19T13:45:09.404Z,38.47
2023-05-19T13:47:36.184Z,38.33
2023-05-19T13:50:04.711Z,39.67
2023-05-19T13:52:31.907Z,39.33
2023-05-19T13:54:58.658Z,38.18
2023-05-19T13:57:27.006Z,39.42
2023-05-19T14:00:02.803Z,40.06
2023-05-19T14:02:40.039Z,41.14
2023-05-19T14:05:08.184Z,39.31
2023-05-19T14:07:35.617Z,38.95
2023-05-19T14:10:04.095Z,38.86
2023-05-19T14:12:43.130Z,36.89
2023-05-19T14:15:14.645Z,38.23
2023-05-19T14:17:42.378Z,38.75
2023-05-19T14:20:09.890Z,38.95
2023-05-19T14:22:36.760Z,36.48
2023-05-19T14:25:03.878Z,38.57
2023-05-19T14:27:30.772Z,40.54
2023-05-19T14:29:57.780Z,38.20
2023-05-19T14:32:24.685Z,38.46
2023-05-19T14:34:53.083Z,38.96
2023-05-19T14:37:20.635Z,37.98
2023-05-19T14:39:47.411Z,37.40
2023-05-19T14:42:14.388Z,36.72
2023-05-19T14:44:41.319Z,38.71
2023-05-19T14:47:08.487Z,38.66
2023-05-19T14:49:35.494Z,35.62
2023-05-19T14:52:02.509Z,38.28
2023-05-19T14:54:29.283Z,36.37
2023-05-19T14:56:56.453Z,37.37
2023-05-19T14:59:23.307Z,39.15
2023-05-19T15:01:50.184Z,36.13
2023-05-19T15:04:17.905Z,40.52
2023-05-19T15:06:46.408Z,40.44
2023-05-19T15:09:15.184Z,40.00
2023-05-19T15:11:42.006Z,37.16
2023-05-19T15:14:08.819Z,37.53
2023-05-19T15:16:35.746Z,36.23
2023-05-19T15:19:02.955Z,34.84
2023-05-19T15:21:29.850Z,35.95
2023-05-19T15:23:56.718Z,37.12
2023-05-19T15:26:23.533Z,37.73
2023-05-19T15:28:52.168Z,34.63
2023-05-19T15:31:19.561Z,38.95
2023-05-19T15:33:46.327Z,37.06
2023-05-19T15:36:16.440Z,35.42
2023-05-19T15:38:43.381Z,37.42
2023-05-19T15:41:10.606Z,35.07
2023-05-19T15:43:37.735Z,36.33
2023-05-19T15:46:05.243Z,36.65
2023-05-19T15:48:33.243Z,35.27
2023-05-19T15:51:00.230Z,37.96
2023-05-19T15:53:27.129Z,36.14
2023-05-19T15:55:53.945Z,39.12
2023-05-19T15:58:20.712Z,36.73
2023-05-19T16:00:47.499Z,36.65
2023-05-19T16:03:15.027Z,37.06
2023-05-19T16:05:42.140Z,37.09
2023-05-19T16:08:09.063Z,35.21
2023-05-19T16:10:36.112Z,36.65
2023-05-19T16:13:03.292Z,36.03
2023-05-19T16:15:30.111Z,36.16
2023-05-19T16:17:57.350Z,39.37
2023-05-19T16:20:28.271Z,39.22
2023-05-19T16:22:55.541Z,35.84
2023-05-19T16:25:22.570Z,39.04
2023-05-19T16:27:50.360Z,37.40
2023-05-19T16:30:17.089Z,36.81
2023-05-19T16:32:43.901Z,38.54
2023-05-19T16:35:11.042Z,36.93
2023-05-19T16:37:37.960Z,39.62
2023-05-19T16:40:05.662Z,36.67
2023-05-19T16:42:32.621Z,37.09
2023-05-19T16:44:59.443Z,38.27
2023-05-19T16:47:26.284Z,39.81
2023-05-19T16:49:53.106Z,40.29
2023-05-19T16:52:20.228Z,38.79
2023-05-19T16:54:47.026Z,39.19
2023-05-19T16:57:17.030Z,36.97
2023-05-19T16:59:44.073Z,36.67
2023-05-19T17:02:10.867Z,37.61
2023-05-19T17:04:37.681Z,39.25
2023-05-19T17:07:05.129Z,37.38
2023-05-19T17:09:32.004Z,36.85
2023-05-19T17:11:59.078Z,37.12
2023-05-19T17:14:25.861Z,40.46
2023-05-19T17:16:53.031Z,38.91
2023-05-19T17:19:20.371Z,38.97
2023-05-19T17:21:47.215Z,38.62
2023-05-19T17:24:14.352Z,39.28
2023-05-19T17:26:41.193Z,36.79
2023-05-19T17:29:07.998Z,35.87
2023-05-19T17:31:35.350Z,38.01
2023-05-19T17:34:02.122Z,41.40
2023-05-19T17:36:29.246Z,42.16
2023-05-19T17:38:56.139Z,41.02
2023-05-19T17:41:23.194Z,40.85
2023-05-19T17:43:50.744Z,41.84
2023-05-19T17:46:17.636Z,43.94
2023-05-19T17:48:44.853Z,42.06
2023-05-19T17:51:12.364Z,42.18
2023-05-19T17:53:39.601Z,42.99
2023-05-19T17:56:08.905Z,42.01
2023-05-19T17:58:36.394Z,42.41
2023-05-19T18:01:03.387Z,42.72
2023-05-19T18:03:31.428Z,43.73
2023-05-19T18:05:59.452Z,44.42
2023-05-19T18:08:27.626Z,44.02
2023-05-19T18:10:57.120Z,45.40
2023-05-19T18:13:24.040Z,44.33
2023-05-19T18:15:52.952Z,43.68
2023-05-19T18:18:19.987Z,45.92
2023-05-19T18:20:49.897Z,45.85
2023-05-19T18:23:16.719Z,46.59
2023-05-19T18:25:50.844Z,45.45
2023-05-19T18:28:17.707Z,42.00
2023-05-19T18:30:45.007Z,45.54
2023-05-19T18:33:12.063Z,44.75
2023-05-19T18:35:39.094Z,47.29
2023-05-19T18:38:06.456Z,46.71
2023-05-19T18:40:33.562Z,45.23
2023-05-19T18:43:00.796Z,44.41
2023-05-19T18:45:27.607Z,42.20
2023-05-19T18:47:54.393Z,45.46
2023-05-19T18:50:21.707Z,46.06
2023-05-19T18:52:48.453Z,46.87
2023-05-19T18:55:15.407Z,47.74
2023-05-19T18:57:42.125Z,48.62
2023-05-19T19:00:09.461Z,46.13
2023-05-19T19:02:36.596Z,44.38
2023-05-19T19:05:04.273Z,45.47
2023-05-19T19:07:31.710Z,45.24
2023-05-19T19:09:58.571Z,46.01
2023-05-19T19:12:25.553Z,44.87
2023-05-19T19:14:52.288Z,47.91
2023-05-19T19:17:19.430Z,45.12
2023-05-19T19:19:47.385Z,45.56
2023-05-19T19:22:14.412Z,45.11
2023-05-19T19:24:43.098Z,44.12
2023-05-19T19:27:10.364Z,44.39
2023-05-19T19:29:37.315Z,43.15
2023-05-19T19:32:04.468Z,44.21
2023-05-19T19:34:31.529Z,45.33
2023-05-19T19:36:58.343Z,43.25
2023-05-19T19:39:25.167Z,46.64
2023-05-19T19:41:52.573Z,43.74
2023-05-19T19:44:19.436Z,46.08
2023-05-19T19:46:46.276Z,46.67
2023-05-19T19:49:13.159Z,48.29
2023-05-19T19:51:40.050Z,48.18
2023-05-19T19:54:07.454Z,45.18
2023-05-19T19:56:36.480Z,46.35
2023-05-19T19:59:03.797Z,47.76
2023-05-19T20:01:31.254Z,45.17
2023-05-19T20:03:58.387Z,43.79
2023-05-19T20:06:25.373Z,44.28
2023-05-19T20:08:53.181Z,45.86
2023-05-19T20:11:23.162Z,45.83
2023-05-19T20:13:51.441Z,47.67
2023-05-19T20:16:19.110Z,47.55
2023-05-19T20:18:46.439Z,45.30
2023-05-19T20:21:13.397Z,46.48
2023-05-19T20:23:40.868Z,48.33
2023-05-19T20:26:11.709Z,49.08
2023-05-19T20:28:40.139Z,43.69
2023-05-19T20:31:08.788Z,44.09
2023-05-19T20:33:37.638Z,45.05
2023-05-19T20:36:07.152Z,45.41
2023-05-19T20:38:34.038Z,44.10
2023-05-19T20:41:02.146Z,43.02
2023-05-19T20:43:29.293Z,45.32
2023-05-19T20:45:56.212Z,46.21
2023-05-19T20:48:23.146Z,47.36
2023-05-19T20:50:51.797Z,46.23
2023-05-19T20:53:19.581Z,44.37
2023-05-19T20:55:47.729Z,46.98
2023-05-19T20:58:14.553Z,45.83
2023-05-19T21:00:41.766Z,45.01
2023-05-19T21:03:08.971Z,46.17
2023-05-19T21:05:37.099Z,43.87
2023-05-19T21:08:04.136Z,43.11
2023-05-19T21:10:32.099Z,43.07
2023-05-19T21:12:59.640Z,47.23
2023-05-19T21:15:27.245Z,45.32
2023-05-19T21:17:54.097Z,47.12
2023-05-19T21:20:21.983Z,48.19
2023-05-19T21:22:48.874Z,47.23
2023-05-19T21:25:17.118Z,46.98
2023-05-19T21:27:46.236Z,47.24
2023-05-19T21:30:14.183Z,43.35
2023-05-19T21:32:41.333Z,44.58
2023-05-19T21:35:09.225Z,46.98
2023-05-19T21:37:37.148Z,48.24
2023-05-19T21:40:04.076Z,47.99
2023-05-19T21:42:31.024Z,47.58
2023-05-19T21:44:58.051Z,46.37
2023-05-19T21:47:24.897Z,46.19
2023-05-19T21:49:52.031Z,48.10
2023-05-19T21:52:22.153Z,46.70
2023-05-19T21:54:52.138Z,45.43
2023-05-19T21:57:18.856Z,46.77
2023-05-19T21:59:45.811Z,47.90
2023-05-19T22:02:12.741Z,47.80
2023-05-19T22:04:41.153Z,45.22
2023-05-19T22:07:08.340Z,46.20
2023-05-19T22:09:35.156Z,47.01
2023-05-19T22:12:02.141Z,48.59
2023-05-19T22:14:29.021Z,47.66
2023-05-19T22:16:55.813Z,46.86
2023-05-19T22:19:22.731Z,45.96
2023-05-19T22:21:53.639Z,45.36
2023-05-19T22:24:25.536Z,46.33
2023-05-19T22:26:52.564Z,47.10
2023-05-19T22:29:20.295Z,46.12
2023-05-19T22:31:47.444Z,48.64
2023-05-19T22:34:15.385Z,48.44
2023-05-19T22:36:44.166Z,46.38
2023-05-19T22:39:12.501Z,47.46
2023-05-19T22:41:39.751Z,44.48
2023-05-19T22:44:07.016Z,43.82
2023-05-19T22:46:35.350Z,44.05
2023-05-19T22:49:02.556Z,44.57
2023-05-19T22:51:29.351Z,45.29
2023-05-19T22:53:56.140Z,45.10
2023-05-19T22:56:23.221Z,50.54
2023-05-19T22:58:50.078Z,51.45
2023-05-19T23:01:17.285Z,46.83
2023-05-19T23:03:44.441Z,51.97
2023-05-19T23:06:11.321Z,49.37
2023-05-19T23:08:38.108Z,50.46
2023-05-19T23:11:04.931Z,48.19
2023-05-19T23:13:31.835Z,49.50
2023-05-19T23:15:58.599Z,51.57
2023-05-19T23:18:25.412Z,50.25
2023-05-19T23:20:52.365Z,47.74
2023-05-19T23:23:19.578Z,49.16
2023-05-19T23:25:46.485Z,47.30
2023-05-19T23:28:13.401Z,46.83
2023-05-19T23:30:40.345Z,46.42
2023-05-19T23:33:07.223Z,51.38
2023-05-19T23:35:35.011Z,45.82
2023-05-19T23:38:02.102Z,49.76
2023-05-19T23:40:29.069Z,45.71
2023-05-19T23:42:55.893Z,44.00
2023-05-19T23:45:22.674Z,48.76
2023-05-19T23:47:49.815Z,46.41
2023-05-19T23:50:16.964Z,47.81
2023-05-19T23:52:43.951Z,51.60
2023-05-19T23:55:13.083Z,50.58
2023-05-19T23:57:39.812Z,47.41
